Terminal Aerodrome Forecast
Issued by NWS Louisville, KY

Home | Current Version | Previous Version | Text Only | Print | Product List | Glossary On
Versions: 1 2 3 4 5 6 7 8 9 10 11 12 13 14 15 16
000
FTUS43 KLMK 240500
TAFBWG
TAF
KBWG 240520Z 2406/2506 32004KT P6SM SCT030
     FM240700 33004KT P6SM BKN026
     FM240900 32005KT P6SM OVC015
     FM241400 36007KT P6SM OVC025
     FM241900 02007KT P6SM BKN035
     FM250000 00000KT P6SM SKC=

USA.gov is the U.S. government's official web portal to all federal, state and local government web resources and services.